ROMMA est une association bénévole à but non lucratif. Votre soutien est indispensable : ADHERER à ROMMA ou FAIRE un DON

Engins - (38, Isère)

Vercors (906 m)   Longitude: 05° 37' E   Latitude: 45° 11' N Station partenaire n°139
 

Détail journalier du     <<     >>

Température Precipitation Humidité Vent Dir Rafale Dir. rafale Ensol.
Heure (°C) (mm) (%) (km/h) (km/h) (min)
01:00 13.00832N10N0
02:00 12.50872NNO6O0
03:00 12.10872NO6NO0
04:00 11.80882NNO8NO0
05:00 11.60912N10NO0
06:00 11.40832SO11ONO0
07:00 11.80802ONO8ONO0
08:00 11.90612NE10O0
09:00 14.40473SSO16S0
10:00 19.70379S24S60
11:00 21.80347S16S60
12:00 20.90665SE18S60
13:00 19.70605SSE19E55
14:00 19.90655S23SO55
15:00 22.404411SSE45SSE60
16:00 22.304518S44SSE60
17:00 21.004915SSO37SSE50
18:00 19.905312SSO37SO0
19:00 19.605516S40S5
20:00 19.205714SSO34SSE0
21:00 19.205613S44S0
22:00 18.805713SSE37SSE0
23:00 19.105519S44SSO0
minuit 18.705521S68S0

Graphique du 14-10-2019

 

Serveur OMMA